Terminal Aerodrome Forecast
Issued by NWS

Home | Current Version | Previous Version | Text Only | Print | Product List | Glossary On
Versions: 1 2 3 4 5 6 7 8 9 10 11 12
000
FTUS45 KREV 291720
TAFMMH
TAF
KMMH 291720Z 2918/3018 13006KT P6SM VCSH SCT070 SCT140
     FM300000 25011G21KT P6SM VCSH SCT070 BKN120
     FM300400 VRB04KT P6SM SCT100
     FM301600 20010G18KT P6SM SCT150=

USA.gov is the U.S. government's official web portal to all federal, state and local government web resources and services.